Time;durP1;ratioP1;P1;durP2;ratioP2;P2;SDS_P1;SDS_P2;PMS_P1;PMS_P2;Temp;Humidity;BMP_temperature;BMP_pressure;BME280_temperature;BME280_humidity;BME280_pressure;Samples;Min_cycle;Max_cycle;Signal;HPM_P1;HPM_P2
2024/02/26 00:02:11;;;;;;;5.70;3.77;;;3.50;95.00;;;;;;4956592;28;20205;-89
2024/02/26 00:04:38;;;;;;;3.90;3.47;;;3.40;95.10;;;;;;4973333;28;20227;-89
2024/02/26 00:07:07;;;;;;;4.80;3.60;;;3.30;95.80;;;;;;4955714;28;20228;-89
2024/02/26 00:09:35;;;;;;;4.33;3.57;;;3.40;96.40;;;;;;4969210;28;20196;-89
2024/02/26 00:12:03;;;;;;;5.60;3.60;;;3.40;96.10;;;;;;4965837;28;20210;-89
2024/02/26 00:14:30;;;;;;;6.37;3.60;;;3.30;95.60;;;;;;4956697;28;20676;-90
2024/02/26 00:16:57;;;;;;;4.67;3.27;;;3.10;95.50;;;;;;4967127;28;20196;-89
2024/02/26 00:19:24;;;;;;;4.83;3.63;;;3.20;96.30;;;;;;4970966;28;20231;-90
2024/02/26 00:21:53;;;;;;;3.80;3.10;;;3.20;95.80;;;;;;4975518;28;20208;-89
2024/02/26 00:24:21;;;;;;;3.97;3.40;;;3.20;96.30;;;;;;4953335;28;20224;-89
2024/02/26 00:26:52;;;;;;;4.73;3.70;;;3.40;96.20;;;;;;4950887;28;20197;-90
2024/02/26 00:29:19;;;;;;;6.00;3.67;;;3.30;95.40;;;;;;4970276;28;20212;-89
2024/02/26 00:31:46;;;;;;;5.13;3.50;;;3.30;95.80;;;;;;4974361;28;20575;-90
2024/02/26 00:34:13;;;;;;;3.17;2.87;;;3.30;95.30;;;;;;4954418;28;20198;-90
2024/02/26 00:36:40;;;;;;;6.07;3.80;;;3.10;95.10;;;;;;4970638;28;20273;-90
2024/02/26 00:39:07;;;;;;;4.70;3.43;;;3.00;95.80;;;;;;4970836;28;20208;-89
2024/02/26 00:41:39;;;;;;;4.23;3.07;;;3.00;95.80;;;;;;4972964;28;20236;-90
2024/02/26 00:44:06;;;;;;;4.53;3.20;;;2.90;95.70;;;;;;4967463;28;20232;-90
2024/02/26 00:46:33;;;;;;;4.90;3.53;;;2.90;95.80;;;;;;4970114;28;20655;-90
2024/02/26 00:49:00;;;;;;;4.57;3.30;;;3.00;95.70;;;;;;4973560;28;20220;-89
2024/02/26 00:51:27;;;;;;;5.97;3.00;;;3.00;95.30;;;;;;4969407;28;20275;-90
2024/02/26 00:53:54;;;;;;;4.67;3.20;;;3.10;95.20;;;;;;4971999;28;20200;-90
2024/02/26 00:56:20;;;;;;;3.97;3.20;;;3.10;94.70;;;;;;4957701;28;20212;-90
2024/02/26 00:58:49;;;;;;;4.23;3.40;;;3.20;94.70;;;;;;4950149;28;20200;-90
2024/02/26 01:01:15;;;;;;;4.93;3.13;;;3.20;94.50;;;;;;4964274;28;20200;-89
2024/02/26 01:03:42;;;;;;;3.80;3.03;;;3.30;94.70;;;;;;4968182;28;20217;-90
2024/02/26 01:06:09;;;;;;;4.00;3.10;;;3.40;93.90;;;;;;4971619;28;20200;-90
2024/02/26 01:08:37;;;;;;;5.80;3.00;;;3.30;93.40;;;;;;4968148;28;20652;-90
2024/02/26 01:11:04;;;;;;;3.97;3.07;;;3.30;93.90;;;;;;4973247;28;20232;-90
2024/02/26 01:13:31;;;;;;;4.50;3.03;;;3.40;94.00;;;;;;4968659;28;20211;-89
2024/02/26 01:16:00;;;;;;;3.77;3.13;;;3.50;93.70;;;;;;4945129;28;20201;-90
2024/02/26 01:18:27;;;;;;;3.63;2.80;;;3.50;93.10;;;;;;4966770;28;21066;-90
2024/02/26 01:20:54;;;;;;;4.50;2.90;;;3.30;92.50;;;;;;4971824;28;20212;-90
2024/02/26 01:23:21;;;;;;;4.43;2.93;;;3.00;93.00;;;;;;4971081;28;20201;-89
2024/02/26 01:25:48;;;;;;;4.57;3.10;;;3.00;93.70;;;;;;4956919;28;20209;-89
2024/02/26 01:28:15;;;;;;;3.93;3.23;;;2.90;94.40;;;;;;4971755;28;20241;-90
2024/02/26 01:30:42;;;;;;;3.33;2.97;;;2.80;94.10;;;;;;4970835;28;20211;-89
2024/02/26 01:33:11;;;;;;;3.50;2.83;;;2.80;94.30;;;;;;4972801;28;20204;-89
2024/02/26 01:35:38;;;;;;;4.40;2.93;;;2.80;94.60;;;;;;4948374;28;20658;-90
2024/02/26 01:38:05;;;;;;;5.53;2.80;;;2.70;94.60;;;;;;4962702;28;20193;-89
2024/02/26 01:40:32;;;;;;;3.73;2.97;;;2.80;94.60;;;;;;4970833;28;20237;-90
2024/02/26 01:43:00;;;;;;;4.27;3.13;;;2.70;94.60;;;;;;4972072;28;20209;-89
2024/02/26 01:45:28;;;;;;;4.07;3.00;;;2.60;94.60;;;;;;4954695;28;20228;-89
2024/02/26 01:47:56;;;;;;;4.93;2.90;;;2.80;94.90;;;;;;4966358;28;20209;-89
2024/02/26 01:50:25;;;;;;;4.40;3.30;;;3.00;95.20;;;;;;4951735;28;20201;-89
2024/02/26 01:52:53;;;;;;;3.60;3.07;;;3.20;94.30;;;;;;4970380;28;20227;-89
2024/02/26 01:55:21;;;;;;;3.77;3.07;;;3.10;93.70;;;;;;4959846;28;20540;-90
2024/02/26 01:57:51;;;;;;;3.13;2.80;;;3.20;93.70;;;;;;4970823;28;20224;-89
2024/02/26 02:00:20;;;;;;;4.17;3.27;;;3.00;93.70;;;;;;4971021;28;20720;-90
2024/02/26 02:02:48;;;;;;;4.77;3.50;;;2.80;93.90;;;;;;4972507;28;20204;-89
2024/02/26 02:05:17;;;;;;;6.23;2.90;;;2.90;94.60;;;;;;4963587;28;20217;-89
2024/02/26 02:07:46;;;;;;;5.43;3.30;;;3.00;94.50;;;;;;4968311;28;20208;-90
2024/02/26 02:10:13;;;;;;;4.33;3.20;;;2.90;94.20;;;;;;4955048;28;20208;-90
2024/02/26 02:12:40;;;;;;;3.47;2.90;;;2.90;94.10;;;;;;4968652;28;20204;-90
2024/02/26 02:15:09;;;;;;;4.70;3.17;;;3.00;94.40;;;;;;4965630;28;20568;-89
2024/02/26 02:17:36;;;;;;;3.87;3.00;;;3.00;94.00;;;;;;4967633;28;20196;-89
2024/02/26 02:20:03;;;;;;;3.37;2.50;;;3.00;94.00;;;;;;4967854;28;20199;-89
2024/02/26 02:22:31;;;;;;;3.83;3.10;;;3.10;93.80;;;;;;4953436;28;20744;-89
2024/02/26 02:24:58;;;;;;;3.50;3.17;;;3.10;93.60;;;;;;4970143;28;20236;-89
2024/02/26 02:27:26;;;;;;;3.93;3.07;;;3.10;93.10;;;;;;4956657;28;20295;-89
2024/02/26 02:29:53;;;;;;;4.33;2.87;;;3.00;93.10;;;;;;4972675;28;20281;-89
2024/02/26 02:32:21;;;;;;;4.77;3.03;;;2.90;93.10;;;;;;4970324;28;20207;-89
2024/02/26 02:34:48;;;;;;;3.60;2.97;;;2.90;93.30;;;;;;4942433;28;20209;-89
2024/02/26 02:37:16;;;;;;;4.20;3.20;;;2.80;93.00;;;;;;4952572;28;20201;-88
2024/02/26 02:39:44;;;;;;;3.20;2.73;;;2.60;93.50;;;;;;4972534;28;20204;-89
2024/02/26 02:42:12;;;;;;;4.40;3.20;;;2.70;94.60;;;;;;4972730;28;20615;-89
2024/02/26 02:44:38;;;;;;;3.43;3.00;;;2.90;94.60;;;;;;4969765;28;20212;-89
2024/02/26 02:47:05;;;;;;;4.40;2.80;;;2.80;93.30;;;;;;4967314;28;20208;-89
2024/02/26 02:49:32;;;;;;;3.17;2.83;;;2.70;93.60;;;;;;4966267;28;20205;-90
2024/02/26 02:51:59;;;;;;;3.80;2.90;;;2.70;94.30;;;;;;4951677;28;20197;-89
2024/02/26 02:54:26;;;;;;;3.70;2.80;;;2.80;93.70;;;;;;4969516;28;20205;-89
2024/02/26 02:56:54;;;;;;;4.03;2.90;;;2.70;93.30;;;;;;4967823;28;20225;-89
2024/02/26 02:59:21;;;;;;;3.37;2.70;;;2.90;93.90;;;;;;4955475;28;20259;-89
2024/02/26 03:01:48;;;;;;;3.13;2.70;;;2.80;93.80;;;;;;4967903;28;20216;-89
2024/02/26 03:04:15;;;;;;;4.10;3.10;;;2.80;93.50;;;;;;4949726;28;20263;-89
2024/02/26 03:06:42;;;;;;;3.43;2.73;;;2.70;93.30;;;;;;4970146;28;20204;-90
2024/02/26 03:09:09;;;;;;;3.50;2.47;;;2.70;93.30;;;;;;4937867;28;20193;-89
2024/02/26 03:11:36;;;;;;;4.63;3.00;;;2.60;94.30;;;;;;4969573;28;20219;-89
2024/02/26 03:14:06;;;;;;;3.93;2.90;;;2.60;93.70;;;;;;4973497;28;20209;-89
2024/02/26 03:16:33;;;;;;;4.30;2.80;;;2.70;94.00;;;;;;4969603;28;20197;-89
2024/02/26 03:19:00;;;;;;;3.53;2.80;;;2.80;93.90;;;;;;4975329;28;20220;-89
2024/02/26 03:21:29;;;;;;;3.10;2.53;;;3.00;93.90;;;;;;4962924;28;20204;-89
2024/02/26 03:23:57;;;;;;;5.27;3.00;;;2.90;93.50;;;;;;4969734;28;20217;-90
2024/02/26 03:26:24;;;;;;;3.63;2.80;;;2.90;92.90;;;;;;4971076;28;20302;-89
2024/02/26 03:28:50;;;;;;;4.90;2.77;;;3.00;93.50;;;;;;4969681;28;20565;-89
2024/02/26 03:31:19;;;;;;;3.50;2.93;;;3.20;92.90;;;;;;4957241;28;20634;-89
2024/02/26 03:33:46;;;;;;;4.10;2.60;;;3.20;92.90;;;;;;4972797;28;20205;-89
2024/02/26 03:36:13;;;;;;;4.10;2.60;;;3.20;92.50;;;;;;4955316;28;20200;-89
2024/02/26 03:38:41;;;;;;;3.30;2.70;;;3.20;92.90;;;;;;4967442;28;20209;-89
2024/02/26 03:41:09;;;;;;;3.13;2.50;;;3.10;92.40;;;;;;4961046;28;20704;-89
2024/02/26 03:43:36;;;;;;;3.13;2.50;;;3.10;93.00;;;;;;4974284;28;20197;-89
2024/02/26 03:46:03;;;;;;;3.57;2.70;;;3.00;92.50;;;;;;4972988;28;20225;-89
2024/02/26 03:48:31;;;;;;;3.67;2.90;;;3.10;93.60;;;;;;4974463;28;20204;-89
2024/02/26 03:50:58;;;;;;;2.80;2.50;;;3.20;93.20;;;;;;4957954;28;20282;-89
2024/02/26 03:53:25;;;;;;;3.30;2.63;;;3.20;92.70;;;;;;4973174;28;20200;-89
2024/02/26 03:55:52;;;;;;;3.50;2.50;;;3.10;92.30;;;;;;4953749;28;20275;-89
2024/02/26 03:58:19;;;;;;;3.20;2.30;;;3.20;92.60;;;;;;4971000;28;20197;-89
2024/02/26 04:00:47;;;;;;;3.97;2.70;;;3.10;92.40;;;;;;4959170;28;20646;-88
2024/02/26 04:03:14;;;;;;;5.57;2.30;;;3.20;92.70;;;;;;4974355;28;20211;-90
2024/02/26 04:05:42;;;;;;;4.43;2.60;;;3.30;91.80;;;;;;4970183;28;20220;-88
2024/02/26 04:08:10;;;;;;;2.90;2.60;;;3.20;92.10;;;;;;4949050;28;20236;-90
2024/02/26 04:10:39;;;;;;;2.77;2.27;;;3.10;92.00;;;;;;4969564;28;20205;-89
2024/02/26 04:13:05;;;;;;;3.00;2.43;;;3.10;92.40;;;;;;4968390;28;20275;-89
2024/02/26 04:15:32;;;;;;;3.30;2.50;;;3.00;92.00;;;;;;4964823;28;20207;-89
2024/02/26 04:17:59;;;;;;;3.93;2.80;;;2.90;92.20;;;;;;4963063;28;20223;-89
2024/02/26 04:20:26;;;;;;;4.37;2.47;;;2.90;92.50;;;;;;4970605;28;20208;-88
2024/02/26 04:22:54;;;;;;;3.53;2.57;;;2.90;92.60;;;;;;4970904;28;20213;-89
2024/02/26 04:25:21;;;;;;;2.93;2.23;;;2.90;92.50;;;;;;4965320;28;20221;-88
2024/02/26 04:27:48;;;;;;;4.33;2.30;;;3.00;92.60;;;;;;4969051;28;20897;-88
2024/02/26 04:30:15;;;;;;;2.77;2.43;;;2.90;92.30;;;;;;4970789;28;20203;-88
2024/02/26 04:32:41;;;;;;;3.27;2.57;;;2.80;91.90;;;;;;4966429;28;20196;-89
2024/02/26 04:35:09;;;;;;;3.40;2.50;;;2.80;92.90;;;;;;4956085;28;20216;-89
2024/02/26 04:37:36;;;;;;;3.40;2.20;;;2.80;92.80;;;;;;4951006;28;20205;-89
2024/02/26 04:40:05;;;;;;;5.30;2.30;;;2.80;92.60;;;;;;4959537;28;20197;-89
2024/02/26 04:42:32;;;;;;;3.30;2.53;;;2.80;92.80;;;;;;4973128;28;20287;-89
2024/02/26 04:44:59;;;;;;;3.77;2.40;;;2.90;93.00;;;;;;4972975;28;20224;-90
2024/02/26 04:47:26;;;;;;;5.37;2.80;;;2.90;92.60;;;;;;4958060;28;20268;-89
2024/02/26 04:49:53;;;;;;;3.57;2.40;;;2.80;91.90;;;;;;4967970;28;20563;-90
2024/02/26 04:52:20;;;;;;;3.13;2.30;;;2.70;92.70;;;;;;4970088;28;20204;-89
2024/02/26 04:54:47;;;;;;;4.30;2.30;;;2.80;92.80;;;;;;4966759;28;20204;-89
2024/02/26 04:57:18;;;;;;;2.53;2.30;;;2.90;92.70;;;;;;4952948;28;20225;-89
2024/02/26 04:59:45;;;;;;;5.30;2.60;;;2.80;92.20;;;;;;4968490;28;20204;-89
2024/02/26 05:02:12;;;;;;;6.80;2.70;;;2.80;92.40;;;;;;4971081;28;20255;-89
2024/02/26 05:04:39;;;;;;;3.33;2.17;;;2.80;92.50;;;;;;4973104;28;20235;-89
2024/02/26 05:07:06;;;;;;;3.60;2.70;;;2.80;92.10;;;;;;4955421;28;20204;-89
2024/02/26 05:09:33;;;;;;;2.47;2.20;;;2.80;92.30;;;;;;4970357;28;20196;-84
2024/02/26 05:12:00;;;;;;;5.50;2.60;;;2.80;92.40;;;;;;4971697;28;20201;-88
2024/02/26 05:14:28;;;;;;;3.60;2.27;;;2.90;92.50;;;;;;4972830;28;20212;-88
2024/02/26 05:16:54;;;;;;;2.93;2.20;;;2.70;91.90;;;;;;4966708;28;20576;-88
2024/02/26 05:19:21;;;;;;;2.87;2.17;;;2.60;93.10;;;;;;4973972;28;20215;-87
2024/02/26 05:21:50;;;;;;;3.33;2.17;;;2.70;92.70;;;;;;4968598;28;20205;-89
2024/02/26 05:24:22;;;;;;;2.63;2.10;;;2.70;92.50;;;;;;4964560;28;20204;-90
2024/02/26 05:26:49;;;;;;;2.50;2.20;;;2.90;92.80;;;;;;4970898;28;20213;-91
2024/02/26 05:29:16;;;;;;;3.50;2.30;;;3.10;92.50;;;;;;4969691;28;20204;-89
2024/02/26 05:31:45;;;;;;;2.50;2.27;;;2.80;91.60;;;;;;4970123;28;20207;-90
2024/02/26 05:34:11;;;;;;;4.43;2.40;;;2.60;92.00;;;;;;4969902;28;20200;-90
2024/02/26 05:36:39;;;;;;;2.97;2.27;;;2.40;92.40;;;;;;4966609;28;20211;-89
2024/02/26 05:39:06;;;;;;;2.60;2.20;;;2.40;92.70;;;;;;4965943;28;20219;-90
2024/02/26 05:41:33;;;;;;;2.43;2.20;;;2.40;93.10;;;;;;4969563;28;20630;-91
2024/02/26 05:44:00;;;;;;;4.30;2.20;;;2.30;92.90;;;;;;4969087;28;20196;-92
2024/02/26 05:46:28;;;;;;;3.37;2.53;;;2.40;93.20;;;;;;4959731;28;20224;-91
2024/02/26 05:48:56;;;;;;;2.70;2.23;;;2.50;93.20;;;;;;4956327;28;20240;-90
2024/02/26 05:51:23;;;;;;;3.30;2.20;;;2.50;92.50;;;;;;4970582;28;21493;-90
2024/02/26 05:53:53;;;;;;;3.00;2.27;;;2.40;92.90;;;;;;4978696;28;20203;-94
2024/02/26 06:01:31;;;;;;;3.87;2.57;;;3.00;92.40;;;;;;4994437;23;20286;-88
2024/02/26 06:03:59;;;;;;;5.80;2.43;;;3.00;91.70;;;;;;4990370;28;20205;-87
2024/02/26 06:06:26;;;;;;;5.00;2.60;;;3.00;92.00;;;;;;5007486;28;20231;-87
2024/02/26 06:08:53;;;;;;;3.73;2.33;;;3.10;92.00;;;;;;5009334;28;20293;-87
2024/02/26 06:11:22;;;;;;;3.17;2.63;;;3.20;91.50;;;;;;4976357;28;20200;-87
2024/02/26 06:13:49;;;;;;;2.87;2.30;;;3.30;90.90;;;;;;5008989;28;20286;-88
2024/02/26 06:16:16;;;;;;;5.10;2.20;;;3.40;90.80;;;;;;5007488;28;20285;-87
2024/02/26 06:18:44;;;;;;;3.57;1.90;;;3.50;90.60;;;;;;4991035;28;20235;-88
2024/02/26 06:21:12;;;;;;;2.47;2.03;;;3.50;90.30;;;;;;5010122;28;20215;-87
2024/02/26 06:23:39;;;;;;;5.60;2.60;;;3.50;88.40;;;;;;5008116;28;20279;-87
2024/02/26 06:26:06;;;;;;;3.67;2.40;;;3.60;91.00;;;;;;4993575;28;20235;-90
2024/02/26 06:28:35;;;;;;;3.97;2.30;;;3.90;91.50;;;;;;5008756;28;20207;-87
2024/02/26 06:31:02;;;;;;;5.10;2.20;;;3.90;90.50;;;;;;5011100;28;20215;-90
2024/02/26 06:33:29;;;;;;;5.07;2.40;;;3.90;91.00;;;;;;5006510;28;20215;-90
2024/02/26 06:35:56;;;;;;;2.87;2.23;;;4.00;90.10;;;;;;5013604;28;20214;-90
2024/02/26 06:38:24;;;;;;;3.87;2.50;;;3.90;90.40;;;;;;5010838;28;20202;-90
2024/02/26 06:40:51;;;;;;;4.53;2.57;;;3.90;90.90;;;;;;5006839;28;20671;-91
2024/02/26 06:43:18;;;;;;;4.97;2.63;;;3.90;90.50;;;;;;5012407;28;20195;-91
2024/02/26 06:45:44;;;;;;;4.60;2.70;;;3.90;90.20;;;;;;5011450;28;20234;-92
2024/02/26 06:48:11;;;;;;;7.17;2.60;;;3.90;90.50;;;;;;5009572;28;20196;-92
2024/02/26 06:50:38;;;;;;;6.70;2.60;;;4.20;90.70;;;;;;5013889;28;20567;-91
2024/02/26 06:53:07;;;;;;;7.33;2.70;;;4.50;91.00;;;;;;5012524;28;20203;-91
2024/02/26 06:55:35;;;;;;;6.80;2.70;;;4.70;88.80;;;;;;5011650;28;20740;-93
2024/02/26 06:58:02;;;;;;;5.10;2.80;;;4.50;87.50;;;;;;4991031;28;20223;-92
2024/02/26 07:00:29;;;;;;;4.57;2.60;;;4.30;88.60;;;;;;4985843;28;20208;-93
2024/02/26 07:02:55;;;;;;;8.33;2.90;;;4.30;87.50;;;;;;4990657;28;20576;-92
2024/02/26 07:05:22;;;;;;;5.90;2.43;;;4.30;85.70;;;;;;4979018;28;20227;-91
2024/02/26 07:07:49;;;;;;;7.37;2.60;;;4.30;86.60;;;;;;4980603;28;20204;-89
2024/02/26 07:10:16;;;;;;;4.50;2.13;;;4.20;82.80;;;;;;4992374;28;20200;-89
2024/02/26 07:12:44;;;;;;;3.97;2.10;;;4.30;83.30;;;;;;4995565;28;20202;-92
2024/02/26 07:15:12;;;;;;;2.80;2.20;;;4.50;85.00;;;;;;4992468;28;20204;-90
2024/02/26 07:17:41;;;;;;;7.93;2.50;;;4.70;83.50;;;;;;4960678;28;20240;-91
2024/02/26 07:20:09;;;;;;;5.90;2.50;;;4.90;82.40;;;;;;4978308;28;20928;-90
2024/02/26 07:22:36;;;;;;;6.00;2.67;;;5.00;82.40;;;;;;4991412;28;20656;-90
2024/02/26 07:25:03;;;;;;;3.67;2.40;;;5.00;85.10;;;;;;4992926;28;20562;-90
2024/02/26 07:27:30;;;;;;;4.97;2.60;;;5.10;85.60;;;;;;4975627;28;20200;-89
2024/02/26 07:29:58;;;;;;;9.03;3.00;;;5.30;85.00;;;;;;4993651;28;20208;-90
2024/02/26 07:32:27;;;;;;;6.80;3.03;;;5.50;82.50;;;;;;4989190;28;20575;-89
2024/02/26 07:34:53;;;;;;;5.88;3.08;;;5.60;79.30;;;;;;4989355;28;20208;-90
2024/02/26 07:37:20;;;;;;;4.78;2.60;;;5.50;75.80;;;;;;4994826;28;20204;-90
2024/02/26 07:39:47;;;;;;;4.88;2.97;;;5.40;71.80;;;;;;4978470;28;20208;-90
2024/02/26 07:42:14;;;;;;;7.30;2.42;;;5.40;70.10;;;;;;4993851;28;20204;-89
2024/02/26 07:44:42;;;;;;;6.18;2.90;;;5.50;70.30;;;;;;4976673;28;20197;-90
2024/02/26 07:47:11;;;;;;;8.38;2.80;;;5.50;70.30;;;;;;4987875;28;20228;-90
2024/02/26 07:49:37;;;;;;;7.88;2.80;;;5.50;68.50;;;;;;4992449;28;20211;-90
2024/02/26 07:52:05;;;;;;;3.72;2.53;;;5.50;70.30;;;;;;4988340;28;20687;-90
2024/02/26 07:54:31;;;;;;;6.70;2.60;;;5.60;70.40;;;;;;4995982;28;20207;-90
2024/02/26 07:56:58;;;;;;;6.03;2.60;;;6.00;70.90;;;;;;4995509;28;20231;-90
2024/02/26 07:59:25;;;;;;;5.60;2.88;;;6.50;67.10;;;;;;4995410;28;20215;-90
2024/02/26 08:01:52;;;;;;;4.05;2.78;;;6.80;67.40;;;;;;4994655;28;20586;-90
2024/02/26 08:04:20;;;;;;;6.78;2.40;;;6.70;59.40;;;;;;4991077;28;20203;-89
2024/02/26 08:06:47;;;;;;;5.82;3.22;;;6.80;56.00;;;;;;4990931;28;20722;-90
2024/02/26 08:09:14;;;;;;;6.97;2.60;;;6.90;52.60;;;;;;4988198;28;20703;-89
2024/02/26 08:11:41;;;;;;;7.65;3.10;;;6.70;55.10;;;;;;4973867;28;20204;-89
2024/02/26 08:14:08;;;;;;;9.82;2.80;;;6.50;55.30;;;;;;4987930;28;20196;-90
2024/02/26 08:16:34;;;;;;;6.78;2.83;;;6.20;56.40;;;;;;4978226;28;20215;-90
2024/02/26 08:19:01;;;;;;;5.32;2.80;;;6.10;57.60;;;;;;5001399;28;20209;-90
2024/02/26 08:21:29;;;;;;;4.32;2.72;;;6.30;58.20;;;;;;4996108;28;20203;-91
2024/02/26 08:23:57;;;;;;;6.45;2.78;;;6.40;57.40;;;;;;4994703;28;20203;-89
2024/02/26 08:26:24;;;;;;;7.50;2.47;;;6.50;58.00;;;;;;4994656;28;20222;-90
2024/02/26 08:28:51;;;;;;;3.72;2.50;;;6.60;56.50;;;;;;4981514;28;20290;-90
2024/02/26 08:31:18;;;;;;;5.28;2.58;;;6.80;53.90;;;;;;4976936;28;20201;-90
2024/02/26 08:33:45;;;;;;;6.88;2.88;;;7.00;51.50;;;;;;4988017;28;20196;-92
2024/02/26 08:36:13;;;;;;;8.90;3.20;;;7.20;48.80;;;;;;4972688;28;20200;-90
2024/02/26 08:38:41;;;;;;;7.32;2.60;;;7.40;48.80;;;;;;4993787;28;20204;-89
2024/02/26 08:41:08;;;;;;;5.55;2.80;;;7.60;48.60;;;;;;4978495;28;20199;-90
2024/02/26 08:43:35;;;;;;;7.22;3.00;;;7.70;46.50;;;;;;4977627;28;20204;-90
2024/02/26 08:46:02;;;;;;;4.93;2.97;;;7.80;46.50;;;;;;4977118;28;20592;-90
2024/02/26 08:48:29;;;;;;;6.32;3.42;;;7.80;46.50;;;;;;4993477;28;20206;-90
2024/02/26 08:50:56;;;;;;;8.52;3.60;;;7.70;46.50;;;;;;4979044;28;20553;-89
2024/02/26 08:53:23;;;;;;;11.07;3.55;;;7.80;46.50;;;;;;4995959;28;20211;-90
2024/02/26 08:55:51;;;;;;;11.23;3.30;;;7.90;42.70;;;;;;4995192;28;20566;-90
2024/02/26 08:58:18;;;;;;;8.15;3.28;;;7.90;43.50;;;;;;4977824;28;20207;-90
2024/02/26 09:00:45;;;;;;;7.13;2.63;;;7.90;44.30;;;;;;4993039;28;20239;-92
2024/02/26 09:03:12;;;;;;;9.35;2.80;;;8.00;40.60;;;;;;4972402;28;20202;-90
2024/02/26 09:05:39;;;;;;;5.20;2.50;;;7.80;41.40;;;;;;4978027;28;20212;-90
2024/02/26 09:08:07;;;;;;;10.18;2.63;;;7.70;42.30;;;;;;4995219;28;20218;-90
2024/02/26 09:10:34;;;;;;;8.02;2.50;;;8.00;44.30;;;;;;4994151;28;20211;-90
2024/02/26 09:13:04;;;;;;;4.28;2.35;;;8.30;39.80;;;;;;4994351;28;20212;-90
2024/02/26 09:15:31;;;;;;;4.85;2.20;;;8.50;38.80;;;;;;4999135;28;20266;-92
2024/02/26 09:17:59;;;;;;;5.68;2.50;;;8.50;38.80;;;;;;4975457;28;20238;-90
2024/02/26 09:20:27;;;;;;;4.50;2.30;;;8.70;37.20;;;;;;4991983;28;20204;-90
2024/02/26 09:22:55;;;;;;;2.78;2.13;;;9.00;35.20;;;;;;4980433;28;20208;-90
2024/02/26 09:25:22;;;;;;;3.20;2.40;;;9.30;33.10;;;;;;4993554;28;20198;-90
2024/02/26 09:27:50;;;;;;;9.00;2.45;;;9.40;32.50;;;;;;4995102;28;20302;-91
2024/02/26 09:30:18;;;;;;;7.45;2.45;;;9.40;32.90;;;;;;4963071;28;20200;-90
2024/02/26 09:32:48;;;;;;;5.53;2.63;;;9.20;33.20;;;;;;4975719;28;20210;-90
2024/02/26 09:35:15;;;;;;;6.70;2.80;;;9.50;32.40;;;;;;4995349;28;20603;-90
2024/02/26 09:37:43;;;;;;;3.38;2.30;;;9.60;32.20;;;;;;4993759;28;20779;-91
2024/02/26 09:40:12;;;;;;;5.05;2.60;;;9.50;31.20;;;;;;4992122;28;20231;-90
2024/02/26 09:42:44;;;;;;;5.60;3.00;;;9.70;30.90;;;;;;4992877;28;20600;-91
2024/02/26 09:45:14;;;;;;;5.07;3.10;;;9.80;30.40;;;;;;4994336;28;20196;-91
2024/02/26 09:47:43;;;;;;;6.22;2.67;;;9.70;30.10;;;;;;4990586;28;20259;-91
2024/02/26 09:50:12;;;;;;;4.53;2.17;;;10.00;27.70;;;;;;4994315;28;20199;-91
2024/02/26 09:52:40;;;;;;;3.65;2.20;;;10.40;25.90;;;;;;4978375;28;20207;-91
2024/02/26 10:00:35;;;;;;;2.53;2.10;;;11.20;24.60;;;;;;5010370;28;20219;-90
2024/02/26 10:06:30;;;;;;;6.10;2.15;;;11.00;23.40;;;;;;5009318;28;20265;-90
2024/02/26 10:14:39;;;;;;;6.40;2.20;;;10.80;24.40;;;;;;4974759;28;20197;-91
2024/02/26 10:17:23;;;;;;;6.93;2.10;;;10.70;24.30;;;;;;5013894;28;20210;-91
2024/02/26 10:20:41;;;;;;;3.13;2.03;;;10.70;24.20;;;;;;5000297;28;20229;-91
2024/02/26 10:23:11;;;;;;;3.38;2.10;;;10.70;24.20;;;;;;5014091;28;20203;-90
2024/02/26 10:29:02;;;;;;;2.67;1.77;;;10.90;24.40;;;;;;4949764;28;20211;-90
2024/02/26 10:31:49;;;;;;;4.03;2.00;;;10.80;24.30;;;;;;5033046;28;20191;-90
2024/02/26 10:34:16;;;;;;;3.55;1.80;;;11.00;24.50;;;;;;5021185;28;20202;-91
2024/02/26 10:36:44;;;;;;;3.45;1.90;;;10.90;23.00;;;;;;5014139;28;20211;-91
2024/02/26 10:39:14;;;;;;;3.45;1.60;;;11.10;23.90;;;;;;5013862;28;20281;-91
2024/02/26 10:41:46;;;;;;;3.17;1.70;;;11.30;22.20;;;;;;4996219;28;20214;-90
2024/02/26 10:44:31;;;;;;;3.90;1.70;;;11.30;22.30;;;;;;4996554;28;20199;-91
2024/02/26 11:07:28;;;;;;;2.80;1.70;;;12.00;19.90;;;;;;4987304;28;20232;-90
2024/02/26 11:09:57;;;;;;;1.75;1.60;;;12.50;19.50;;;;;;5007472;28;20204;-91
2024/02/26 11:12:25;;;;;;;1.95;1.50;;;12.80;18.50;;;;;;4991390;28;20200;-90
2024/02/26 11:14:54;;;;;;;5.75;2.22;;;13.40;17.00;;;;;;4991395;28;20204;-91
2024/02/26 11:17:23;;;;;;;4.43;3.60;;;13.90;16.00;;;;;;4982633;28;20200;-90
2024/02/26 11:19:52;;;;;;;1.30;1.17;;;14.30;15.70;;;;;;4971909;28;20630;-91
2024/02/26 11:22:19;;;;;;;2.72;2.13;;;13.80;13.40;;;;;;4974011;28;20222;-90
2024/02/26 11:24:48;;;;;;;2.50;2.25;;;13.80;14.20;;;;;;4995498;28;20790;-91
2024/02/26 11:27:18;;;;;;;3.53;2.95;;;14.00;13.90;;;;;;4952944;28;20227;-90
2024/02/26 11:29:49;;;;;;;1.58;1.38;;;14.00;13.90;;;;;;4983722;28;20279;-90
2024/02/26 11:32:16;;;;;;;2.58;1.20;;;13.90;13.30;;;;;;4991914;28;20211;-90
2024/02/26 11:34:44;;;;;;;1.50;1.10;;;13.70;13.90;;;;;;4993672;28;20565;-90
2024/02/26 11:37:12;;;;;;;2.60;2.38;;;13.60;14.30;;;;;;4995760;28;20204;-90
2024/02/26 11:39:41;;;;;;;1.27;1.17;;;13.70;14.30;;;;;;4994146;28;20207;-90
2024/02/26 11:42:10;;;;;;;1.00;0.90;;;13.80;13.70;;;;;;4979061;28;20661;-91
2024/02/26 11:44:37;;;;;;;2.75;1.08;;;13.70;13.70;;;;;;4998658;28;20598;-90
2024/02/26 11:47:14;;;;;;;1.20;1.10;;;13.80;14.50;;;;;;4974812;28;20223;-89
2024/02/26 11:49:42;;;;;;;1.23;1.13;;;13.80;13.50;;;;;;4990325;28;20204;-91
2024/02/26 11:52:09;;;;;;;1.40;1.30;;;13.60;14.40;;;;;;4990485;28;20204;-90
2024/02/26 11:54:41;;;;;;;1.30;1.13;;;13.80;14.20;;;;;;4984757;28;20211;-90
2024/02/26 11:57:23;;;;;;;1.48;1.20;;;14.00;13.60;;;;;;4992371;28;20252;-91
2024/02/26 11:59:51;;;;;;;1.40;1.30;;;13.80;13.50;;;;;;4988217;28;20196;-91
2024/02/26 12:02:42;;;;;;;1.77;1.27;;;14.00;13.50;;;;;;4997413;28;20204;-91
2024/02/26 12:05:13;;;;;;;1.17;1.08;;;14.00;13.90;;;;;;4981665;28;20208;-91
2024/02/26 12:07:42;;;;;;;1.77;1.00;;;14.40;13.00;;;;;;4994476;28;20224;-91
2024/02/26 12:10:25;;;;;;;3.28;1.48;;;14.60;12.10;;;;;;4981481;28;20210;-91
2024/02/26 12:12:57;;;;;;;4.65;1.50;;;14.50;12.60;;;;;;4978349;28;20249;-91
2024/02/26 12:15:26;;;;;;;1.38;1.20;;;14.30;13.30;;;;;;4980550;28;20223;-91
2024/02/26 12:17:53;;;;;;;1.50;1.20;;;14.20;12.20;;;;;;4990504;28;20216;-90
2024/02/26 12:20:20;;;;;;;2.00;1.02;;;14.00;12.00;;;;;;4991016;28;20203;-90
2024/02/26 12:22:48;;;;;;;1.60;1.10;;;14.00;13.10;;;;;;4997839;28;20200;-90
2024/02/26 12:25:15;;;;;;;0.90;0.80;;;13.90;12.30;;;;;;4996246;28;20196;-90
2024/02/26 12:27:42;;;;;;;2.53;1.20;;;13.70;12.60;;;;;;4972041;28;20224;-90
2024/02/26 12:30:13;;;;;;;1.40;1.00;;;13.70;12.40;;;;;;4994965;28;20204;-90
2024/02/26 12:32:46;;;;;;;1.50;1.00;;;13.60;11.90;;;;;;4967970;28;20259;-91
2024/02/26 12:35:20;;;;;;;1.77;1.10;;;13.20;13.10;;;;;;5000551;28;20201;-90
2024/02/26 12:37:51;;;;;;;1.70;1.33;;;13.20;13.70;;;;;;4974126;28;20242;-90
2024/02/26 12:40:18;;;;;;;1.13;1.02;;;13.40;13.00;;;;;;4975127;28;20200;-90
2024/02/26 12:42:49;;;;;;;2.25;0.98;;;13.60;13.30;;;;;;4984807;28;20215;-90
2024/02/26 12:45:17;;;;;;;1.38;1.08;;;13.50;12.30;;;;;;4965156;28;20649;-90
2024/02/26 12:47:46;;;;;;;2.03;1.17;;;13.40;12.70;;;;;;4977105;28;20220;-90
2024/02/26 12:50:21;;;;;;;3.22;1.38;;;13.20;13.90;;;;;;4988162;28;20209;-90
2024/02/26 12:52:51;;;;;;;3.65;1.08;;;13.10;14.40;;;;;;4980890;28;20203;-90
2024/02/26 12:55:21;;;;;;;3.20;1.55;;;13.00;15.00;;;;;;4986214;28;20254;-90
2024/02/26 12:57:51;;;;;;;2.78;1.30;;;13.00;15.80;;;;;;4973383;28;20680;-90
2024/02/26 13:00:24;;;;;;;2.78;1.40;;;13.30;15.60;;;;;;4975183;28;20231;-91
2024/02/26 13:02:52;;;;;;;3.45;2.00;;;13.60;17.20;;;;;;4967899;28;20276;-89
2024/02/26 13:05:20;;;;;;;5.85;2.20;;;13.80;18.00;;;;;;4977983;28;20215;-90
2024/02/26 13:07:48;;;;;;;6.53;4.07;;;13.90;19.00;;;;;;4982075;28;20223;-90
2024/02/26 13:10:17;;;;;;;4.63;2.33;;;13.80;19.10;;;;;;4974888;28;20211;-90
2024/02/26 13:12:45;;;;;;;2.78;2.05;;;13.80;19.30;;;;;;4976107;28;20306;-90
2024/02/26 13:15:16;;;;;;;1.90;1.65;;;13.90;18.30;;;;;;4977298;28;20284;-90
2024/02/26 13:17:44;;;;;;;1.75;1.60;;;13.80;17.60;;;;;;4993801;28;20214;-90
2024/02/26 13:20:11;;;;;;;2.40;2.10;;;13.80;16.30;;;;;;4981887;28;20452;-91
2024/02/26 13:22:38;;;;;;;2.65;1.88;;;13.60;18.10;;;;;;4989606;28;20200;-91
2024/02/26 13:25:11;;;;;;;3.58;2.40;;;13.50;18.00;;;;;;4988458;28;20255;-91
2024/02/26 13:27:38;;;;;;;2.35;2.15;;;13.50;18.90;;;;;;4976059;28;20282;-91
2024/02/26 13:30:10;;;;;;;3.25;2.30;;;13.60;19.10;;;;;;4976623;28;20200;-91
2024/02/26 13:32:38;;;;;;;3.10;2.47;;;13.50;19.50;;;;;;4992959;28;20203;-90
2024/02/26 13:35:12;;;;;;;2.92;2.60;;;13.30;20.00;;;;;;4995655;28;20290;-91
2024/02/26 13:37:39;;;;;;;2.95;2.50;;;13.20;20.80;;;;;;4990831;28;20645;-91
2024/02/26 13:46:29;;;;;;;2.70;1.80;;;12.80;18.10;;;;;;4966626;28;20216;-90
2024/02/26 13:48:59;;;;;;;2.60;2.17;;;12.70;18.70;;;;;;4937186;28;20228;-91
2024/02/26 13:51:35;;;;;;;2.10;1.95;;;12.70;20.20;;;;;;4940868;28;20205;-90